createdAt,value
2024-01-06T00:00:06.326Z,19.98
2024-01-06T00:01:06.442Z,20.27
2024-01-06T00:02:06.382Z,21.62
2024-01-06T00:03:06.529Z,20.72
2024-01-06T00:04:06.573Z,21.33
2024-01-06T00:05:06.565Z,19.74
2024-01-06T00:06:06.542Z,19.94
2024-01-06T00:07:06.526Z,22.39
2024-01-06T00:08:06.553Z,22.84
2024-01-06T00:09:06.606Z,23.42
2024-01-06T00:10:06.605Z,22.26
2024-01-06T00:11:06.651Z,21.58
2024-01-06T00:12:06.703Z,21.05
2024-01-06T00:13:06.767Z,23.57
2024-01-06T00:14:06.831Z,22.67
2024-01-06T00:15:06.971Z,23.02
2024-01-06T00:16:06.902Z,22.50
2024-01-06T00:17:06.979Z,21.21
2024-01-06T00:18:07.091Z,22.09
2024-01-06T00:19:07.301Z,21.61
2024-01-06T00:20:07.327Z,21.96
2024-01-06T00:21:07.334Z,19.82
2024-01-06T00:22:07.291Z,20.54
2024-01-06T00:23:07.332Z,19.33
2024-01-06T00:24:07.460Z,19.72
2024-01-06T00:25:07.417Z,20.67
2024-01-06T00:26:07.395Z,19.32
2024-01-06T00:27:07.489Z,18.28
2024-01-06T00:28:07.458Z,19.12
2024-01-06T00:29:07.461Z,18.26
2024-01-06T00:30:07.804Z,18.66
2024-01-06T00:31:07.727Z,18.66
2024-01-06T00:32:07.565Z,18.22
2024-01-06T00:33:07.665Z,19.20
2024-01-06T00:34:07.698Z,19.09
2024-01-06T00:35:07.673Z,18.67
2024-01-06T00:36:07.669Z,18.21
2024-01-06T00:37:07.670Z,18.85
2024-01-06T00:38:07.725Z,18.90
2024-01-06T00:39:07.888Z,18.51
2024-01-06T00:40:07.762Z,19.83
2024-01-06T00:41:07.770Z,18.48
2024-01-06T00:42:07.859Z,18.55
2024-01-06T00:43:07.822Z,19.02
2024-01-06T00:44:07.855Z,18.65
2024-01-06T00:45:07.908Z,18.54
2024-01-06T00:46:07.918Z,20.07
2024-01-06T00:47:07.948Z,19.55
2024-01-06T00:48:08.156Z,19.39
2024-01-06T00:49:08.116Z,18.78
2024-01-06T00:50:08.085Z,19.82
2024-01-06T00:51:08.150Z,18.99
2024-01-06T00:52:08.144Z,18.59
2024-01-06T00:53:08.210Z,19.95
2024-01-06T00:54:08.239Z,20.51
2024-01-06T00:55:08.248Z,18.54
2024-01-06T00:56:08.336Z,19.60
2024-01-06T00:57:08.350Z,18.93
2024-01-06T00:58:08.364Z,19.86
2024-01-06T00:59:08.405Z,20.46
2024-01-06T01:00:08.544Z,19.41
2024-01-06T01:01:08.504Z,19.45
2024-01-06T01:02:08.415Z,18.43
2024-01-06T01:03:08.522Z,19.06
2024-01-06T01:04:08.549Z,19.84
2024-01-06T01:05:08.571Z,19.84
2024-01-06T01:06:08.565Z,18.75
2024-01-06T01:07:08.619Z,20.13
2024-01-06T01:08:08.693Z,18.31
2024-01-06T01:09:08.739Z,19.42
2024-01-06T01:10:08.737Z,19.13
2024-01-06T01:11:08.807Z,18.66
2024-01-06T01:12:08.851Z,18.69
2024-01-06T01:13:08.834Z,18.73
2024-01-06T01:14:08.922Z,18.37
2024-01-06T01:15:08.912Z,18.35
2024-01-06T01:16:08.916Z,19.46
2024-01-06T01:17:08.915Z,19.81
2024-01-06T01:18:09.029Z,18.18
2024-01-06T01:19:09.009Z,18.59
2024-01-06T01:20:08.926Z,18.77
2024-01-06T01:21:09.047Z,18.18
2024-01-06T01:22:08.963Z,19.10
2024-01-06T01:23:08.976Z,18.04
2024-01-06T01:24:09.016Z,18.74
2024-01-06T01:25:09.028Z,17.90
2024-01-06T01:26:09.033Z,18.44
2024-01-06T01:27:09.085Z,17.36
2024-01-06T01:28:09.102Z,18.07
2024-01-06T01:29:09.148Z,17.75
2024-01-06T01:30:09.445Z,18.26
2024-01-06T01:31:09.323Z,17.17
2024-01-06T01:32:09.379Z,18.27
2024-01-06T01:33:09.453Z,18.56
2024-01-06T01:34:09.447Z,18.00
2024-01-06T01:35:09.381Z,17.69
2024-01-06T01:36:09.381Z,18.16
2024-01-06T01:37:09.431Z,18.33
2024-01-06T01:38:09.426Z,18.09
2024-01-06T01:39:09.517Z,17.86
2024-01-06T01:40:09.518Z,17.96
2024-01-06T01:41:09.562Z,18.49
2024-01-06T01:42:09.622Z,17.64
2024-01-06T01:43:09.637Z,18.80
2024-01-06T01:44:09.698Z,18.13
2024-01-06T01:45:11.745Z,17.88
2024-01-06T01:46:09.736Z,16.77
2024-01-06T01:47:09.748Z,17.93
2024-01-06T01:48:09.863Z,17.94
2024-01-06T01:49:09.884Z,18.65
2024-01-06T01:50:09.774Z,18.71
2024-01-06T01:51:09.769Z,18.00
2024-01-06T01:52:09.775Z,17.76
2024-01-06T01:53:09.780Z,17.67
2024-01-06T01:54:09.826Z,19.17
2024-01-06T01:55:09.794Z,18.59
2024-01-06T01:56:09.795Z,18.79
2024-01-06T01:57:09.842Z,18.54
2024-01-06T01:58:09.792Z,18.32
2024-01-06T01:59:09.795Z,19.32
2024-01-06T02:00:09.874Z,18.56
2024-01-06T02:01:09.865Z,17.67
2024-01-06T02:02:09.789Z,18.86
2024-01-06T02:03:09.839Z,18.01
2024-01-06T02:04:09.888Z,19.09
2024-01-06T02:05:09.900Z,17.51
2024-01-06T02:06:09.832Z,17.85
2024-01-06T02:07:09.838Z,17.42
2024-01-06T02:08:09.843Z,19.80
2024-01-06T02:09:09.859Z,18.76
2024-01-06T02:10:09.843Z,17.81
2024-01-06T02:11:09.858Z,17.01
2024-01-06T02:12:09.878Z,17.60
2024-01-06T02:13:09.869Z,17.63
2024-01-06T02:14:09.834Z,18.21
2024-01-06T02:15:09.931Z,17.88
2024-01-06T02:16:09.853Z,18.71
2024-01-06T02:17:09.862Z,19.07
2024-01-06T02:18:10.061Z,18.00
2024-01-06T02:19:09.990Z,17.88
2024-01-06T02:20:09.889Z,18.28
2024-01-06T02:21:09.940Z,17.45
2024-01-06T02:22:09.905Z,17.00
2024-01-06T02:23:09.902Z,17.13
2024-01-06T02:24:09.943Z,17.65
2024-01-06T02:25:09.889Z,16.83
2024-01-06T02:26:09.899Z,18.52
2024-01-06T02:27:09.939Z,17.82
2024-01-06T02:28:10.343Z,16.54
2024-01-06T02:29:09.908Z,17.45
2024-01-06T02:30:09.990Z,17.30
2024-01-06T02:31:09.942Z,17.09
2024-01-06T02:32:09.909Z,16.65
2024-01-06T02:33:10.112Z,16.29
2024-01-06T02:34:10.022Z,17.72
2024-01-06T02:35:09.911Z,16.29
2024-01-06T02:36:10.001Z,17.14
2024-01-06T02:37:09.938Z,16.99
2024-01-06T02:38:09.947Z,17.48
2024-01-06T02:39:09.981Z,18.06
2024-01-06T02:40:09.990Z,17.84
2024-01-06T02:41:10.077Z,18.00
2024-01-06T02:42:10.140Z,17.81
2024-01-06T02:43:10.139Z,16.96
2024-01-06T02:44:13.550Z,16.97
2024-01-06T02:45:10.207Z,16.71
2024-01-06T02:46:10.201Z,17.86
2024-01-06T02:47:10.240Z,17.71
2024-01-06T02:48:10.386Z,17.07
2024-01-06T02:49:10.448Z,18.69
2024-01-06T02:50:10.282Z,16.97
2024-01-06T02:51:10.347Z,17.42
2024-01-06T02:52:10.312Z,17.59
2024-01-06T02:53:10.332Z,17.61
2024-01-06T02:54:10.400Z,17.88
2024-01-06T02:55:10.383Z,16.82
2024-01-06T02:56:10.390Z,17.54
2024-01-06T02:57:10.441Z,16.63
2024-01-06T02:58:10.407Z,17.20
2024-01-06T02:59:10.452Z,17.64
2024-01-06T03:00:10.520Z,17.45
2024-01-06T03:01:10.592Z,17.85
2024-01-06T03:02:10.489Z,17.31
2024-01-06T03:03:10.646Z,16.92
2024-01-06T03:04:10.944Z,16.65
2024-01-06T03:05:10.588Z,17.47
2024-01-06T03:06:10.614Z,17.60
2024-01-06T03:07:10.611Z,16.99
2024-01-06T03:08:10.659Z,17.42
2024-01-06T03:09:10.722Z,17.22
2024-01-06T03:10:10.704Z,17.55
2024-01-06T03:11:10.696Z,17.26
2024-01-06T03:12:10.752Z,15.67
2024-01-06T03:13:10.762Z,17.34
2024-01-06T03:14:10.786Z,16.53
2024-01-06T03:15:10.828Z,16.99
2024-01-06T03:16:10.828Z,15.51
2024-01-06T03:17:10.846Z,17.32
2024-01-06T03:18:10.972Z,17.67
2024-01-06T03:19:11.055Z,17.02
2024-01-06T03:20:10.950Z,17.73
2024-01-06T03:21:10.994Z,16.53
2024-01-06T03:22:10.987Z,17.56
2024-01-06T03:23:11.016Z,17.49
2024-01-06T03:24:11.142Z,17.39
2024-01-06T03:25:11.103Z,16.79
2024-01-06T03:26:11.229Z,16.97
2024-01-06T03:27:11.168Z,17.78
2024-01-06T03:28:11.166Z,17.38
2024-01-06T03:29:11.199Z,17.12
2024-01-06T03:30:11.330Z,17.91
2024-01-06T03:31:11.343Z,18.49
2024-01-06T03:32:11.276Z,16.55
2024-01-06T03:33:11.670Z,17.00
2024-01-06T03:34:11.427Z,17.44
2024-01-06T03:35:11.389Z,16.93
2024-01-06T03:36:11.436Z,17.55
2024-01-06T03:37:11.436Z,18.20
2024-01-06T03:38:11.480Z,17.18
2024-01-06T03:39:11.688Z,17.56
2024-01-06T03:40:11.632Z,17.63
2024-01-06T03:41:11.720Z,16.98
2024-01-06T03:42:11.798Z,17.06
2024-01-06T03:43:11.812Z,18.22
2024-01-06T03:44:11.887Z,15.29
2024-01-06T03:45:11.984Z,17.26
2024-01-06T03:46:12.056Z,15.89
2024-01-06T03:47:12.148Z,17.22
2024-01-06T03:48:12.361Z,16.78
2024-01-06T03:49:12.425Z,16.89
2024-01-06T03:50:12.347Z,16.74
2024-01-06T03:51:12.439Z,15.51
2024-01-06T03:52:12.464Z,16.20
2024-01-06T03:53:12.502Z,16.29
2024-01-06T03:54:12.511Z,15.71
2024-01-06T03:55:12.537Z,15.92
2024-01-06T03:56:12.612Z,16.09
2024-01-06T03:57:12.721Z,15.95
2024-01-06T03:58:12.755Z,15.59
2024-01-06T03:59:12.781Z,15.62
2024-01-06T04:00:12.826Z,15.61
2024-01-06T04:01:12.933Z,16.54
2024-01-06T04:02:12.964Z,15.32
2024-01-06T04:03:13.038Z,15.34
2024-01-06T04:04:13.202Z,16.48
2024-01-06T04:05:13.220Z,15.01
2024-01-06T04:06:13.257Z,14.99
2024-01-06T04:07:13.316Z,14.58
2024-01-06T04:08:13.361Z,16.21
2024-01-06T04:09:15.179Z,15.66
2024-01-06T04:10:13.499Z,15.62
2024-01-06T04:11:13.507Z,16.12
2024-01-06T04:12:13.582Z,15.57
2024-01-06T04:13:13.578Z,15.95
2024-01-06T04:14:13.618Z,15.18
2024-01-06T04:15:13.636Z,15.89
2024-01-06T04:16:13.669Z,17.01
2024-01-06T04:17:13.680Z,17.31
2024-01-06T04:18:13.803Z,16.75
2024-01-06T04:19:13.769Z,16.52
2024-01-06T04:20:13.821Z,16.01
2024-01-06T04:21:13.755Z,16.48
2024-01-06T04:22:13.794Z,17.42
2024-01-06T04:23:13.808Z,17.50
2024-01-06T04:24:13.890Z,16.27
2024-01-06T04:25:13.891Z,16.33
2024-01-06T04:26:13.881Z,15.43
2024-01-06T04:27:13.938Z,17.72
2024-01-06T04:28:13.949Z,17.14
2024-01-06T04:29:14.022Z,16.08
2024-01-06T04:30:14.061Z,16.68
2024-01-06T04:31:14.189Z,17.52
2024-01-06T04:32:14.084Z,17.54
2024-01-06T04:33:14.283Z,16.85
2024-01-06T04:34:14.240Z,16.06
2024-01-06T04:35:14.172Z,16.46
2024-01-06T04:36:14.253Z,16.68
2024-01-06T04:37:14.256Z,16.94
2024-01-06T04:38:14.254Z,16.49
2024-01-06T04:39:14.284Z,17.69
2024-01-06T04:40:14.316Z,17.07
2024-01-06T04:41:14.341Z,16.36
2024-01-06T04:42:14.443Z,15.75
2024-01-06T04:43:14.391Z,17.18
2024-01-06T04:44:14.420Z,16.51
2024-01-06T04:45:14.426Z,16.44
2024-01-06T04:46:14.423Z,17.51
2024-01-06T04:47:14.452Z,16.24
2024-01-06T04:48:14.689Z,16.51
2024-01-06T04:49:14.590Z,17.40
2024-01-06T04:50:14.516Z,16.18
2024-01-06T04:51:14.575Z,15.47
2024-01-06T04:52:14.542Z,15.87
2024-01-06T04:53:14.573Z,15.99
2024-01-06T04:54:22.062Z,14.92
2024-01-06T04:55:22.053Z,16.19
2024-01-06T04:56:22.052Z,15.29
2024-01-06T04:57:22.218Z,15.69
2024-01-06T04:58:22.038Z,15.99
2024-01-06T04:59:22.050Z,15.57
2024-01-06T05:00:22.050Z,14.92
2024-01-06T05:01:22.220Z,15.27
2024-01-06T05:02:22.013Z,15.50
2024-01-06T05:03:22.115Z,16.06
2024-01-06T05:04:22.140Z,14.72
2024-01-06T05:05:22.060Z,14.92
2024-01-06T05:06:21.988Z,14.24
2024-01-06T05:07:21.963Z,14.68
2024-01-06T05:08:21.963Z,15.32
2024-01-06T05:09:22.003Z,15.38
2024-01-06T05:10:21.956Z,14.37
2024-01-06T05:11:21.934Z,15.20
2024-01-06T05:12:21.985Z,15.10
2024-01-06T05:13:22.011Z,14.70
2024-01-06T05:14:22.091Z,14.64
2024-01-06T05:15:22.174Z,15.40
2024-01-06T05:16:22.191Z,15.53
2024-01-06T05:17:22.204Z,14.19
2024-01-06T05:18:22.398Z,14.79
2024-01-06T05:19:22.730Z,13.49
2024-01-06T05:20:22.349Z,15.67
2024-01-06T05:21:22.420Z,14.26
2024-01-06T05:22:22.467Z,13.89
2024-01-06T05:23:22.510Z,14.03
2024-01-06T05:24:22.560Z,14.61
2024-01-06T05:25:22.548Z,15.58
2024-01-06T05:26:22.638Z,14.17
2024-01-06T05:27:22.716Z,14.82
2024-01-06T05:28:22.707Z,14.04
2024-01-06T05:29:22.738Z,14.34
2024-01-06T05:30:22.811Z,13.65
2024-01-06T05:31:22.882Z,14.53
2024-01-06T05:32:22.866Z,14.55
2024-01-06T05:33:23.062Z,14.08
2024-01-06T05:34:22.986Z,14.23
2024-01-06T05:35:23.013Z,13.72
2024-01-06T05:36:23.106Z,15.01
2024-01-06T05:37:23.044Z,15.19
2024-01-06T05:38:23.108Z,15.15
2024-01-06T05:39:23.202Z,15.26
2024-01-06T05:40:23.148Z,16.22
2024-01-06T05:41:23.205Z,15.42
2024-01-06T05:42:23.279Z,15.91
2024-01-06T05:43:23.309Z,17.23
2024-01-06T05:44:23.342Z,16.82
2024-01-06T05:45:23.405Z,16.74
2024-01-06T05:46:23.399Z,16.58
2024-01-06T05:47:23.508Z,16.52
2024-01-06T05:48:23.773Z,17.19
2024-01-06T05:49:23.699Z,16.29
2024-01-06T05:50:23.622Z,16.68
2024-01-06T05:51:23.767Z,17.14
2024-01-06T05:52:23.679Z,17.04
2024-01-06T05:53:23.758Z,17.32
2024-01-06T05:54:23.801Z,15.91
2024-01-06T05:55:23.809Z,16.85
2024-01-06T05:56:23.853Z,17.13
2024-01-06T05:57:23.897Z,16.83
2024-01-06T05:58:23.904Z,18.81
2024-01-06T05:59:23.965Z,19.08
2024-01-06T06:00:23.999Z,19.22
2024-01-06T06:01:24.510Z,18.85
2024-01-06T06:02:24.085Z,18.46
2024-01-06T06:03:24.211Z,17.89
2024-01-06T06:04:24.230Z,18.80
2024-01-06T06:05:24.240Z,17.06
2024-01-06T06:06:24.291Z,17.19
2024-01-06T06:07:24.274Z,17.17
2024-01-06T06:08:24.344Z,17.06
2024-01-06T06:09:24.403Z,18.84
2024-01-06T06:10:24.446Z,17.87
2024-01-06T06:11:24.453Z,17.67
2024-01-06T06:12:24.485Z,16.96
2024-01-06T06:13:24.537Z,19.16
2024-01-06T06:14:27.355Z,18.61
2024-01-06T06:15:24.544Z,19.83
2024-01-06T06:16:24.518Z,17.91
2024-01-06T06:17:24.548Z,16.77
2024-01-06T06:18:24.688Z,17.64
2024-01-06T06:19:24.664Z,18.43
2024-01-06T06:20:24.472Z,18.30
2024-01-06T06:21:24.521Z,18.11
2024-01-06T06:22:24.447Z,17.13
2024-01-06T06:23:24.488Z,17.38
2024-01-06T06:24:24.446Z,18.85
2024-01-06T06:25:24.407Z,19.04
2024-01-06T06:26:24.441Z,19.35
2024-01-06T06:27:24.445Z,18.26
2024-01-06T06:28:24.353Z,17.90
2024-01-06T06:29:24.371Z,16.07
2024-01-06T06:30:24.395Z,16.14
2024-01-06T06:31:24.434Z,16.06
2024-01-06T06:32:24.399Z,17.43
2024-01-06T06:33:24.416Z,16.47
2024-01-06T06:34:24.494Z,16.19
2024-01-06T06:35:24.399Z,16.62
2024-01-06T06:36:24.434Z,17.45
2024-01-06T06:37:24.464Z,16.36
2024-01-06T06:38:24.488Z,17.59
2024-01-06T06:39:24.585Z,16.91
2024-01-06T06:40:24.576Z,17.68
2024-01-06T06:41:24.603Z,17.03
2024-01-06T06:42:24.652Z,17.75
2024-01-06T06:43:24.670Z,17.13
2024-01-06T06:44:24.693Z,17.34
2024-01-06T06:45:24.752Z,17.84
2024-01-06T06:46:24.693Z,17.69
2024-01-06T06:47:24.834Z,17.09
2024-01-06T06:48:24.821Z,18.72
2024-01-06T06:49:24.791Z,17.71
2024-01-06T06:50:24.770Z,18.07
2024-01-06T06:51:24.826Z,17.77
2024-01-06T06:52:24.871Z,17.74
2024-01-06T06:53:24.928Z,17.17
2024-01-06T06:54:25.022Z,20.12
2024-01-06T06:55:25.019Z,18.93
2024-01-06T06:56:25.071Z,18.77
2024-01-06T06:57:25.162Z,18.88
2024-01-06T06:58:25.117Z,18.72
2024-01-06T06:59:25.172Z,18.81
2024-01-06T07:00:25.246Z,19.08
2024-01-06T07:01:25.358Z,19.21
2024-01-06T07:02:25.381Z,19.39
2024-01-06T07:03:25.404Z,19.14
2024-01-06T07:04:25.378Z,20.52
2024-01-06T07:05:25.411Z,21.12
2024-01-06T07:06:25.386Z,18.37
2024-01-06T07:07:25.399Z,19.49
2024-01-06T07:08:25.454Z,19.14
2024-01-06T07:09:25.497Z,18.77
2024-01-06T07:10:25.478Z,18.44
2024-01-06T07:11:25.646Z,18.87
2024-01-06T07:12:25.593Z,19.48
2024-01-06T07:13:25.647Z,19.29
2024-01-06T07:14:25.674Z,19.36
2024-01-06T07:15:25.744Z,19.05
2024-01-06T07:16:25.897Z,19.01
2024-01-06T07:17:25.778Z,19.04
2024-01-06T07:18:26.102Z,19.70
2024-01-06T07:19:25.983Z,20.33
2024-01-06T07:20:25.894Z,21.10
2024-01-06T07:21:25.959Z,20.15
2024-01-06T07:22:25.969Z,19.70
2024-01-06T07:23:26.003Z,19.02
2024-01-06T07:24:26.034Z,19.03
2024-01-06T07:25:26.069Z,18.33
2024-01-06T07:26:26.096Z,18.75
2024-01-06T07:27:26.176Z,17.12
2024-01-06T07:28:26.161Z,18.80
2024-01-06T07:29:26.198Z,18.22
2024-01-06T07:30:26.264Z,18.66
2024-01-06T07:31:26.324Z,18.76
2024-01-06T07:32:26.326Z,17.93
2024-01-06T07:33:26.314Z,17.47
2024-01-06T07:34:26.462Z,18.24
2024-01-06T07:35:26.292Z,20.81
2024-01-06T07:36:26.354Z,19.34
2024-01-06T07:37:27.226Z,19.22
2024-01-06T07:38:26.403Z,20.92
2024-01-06T07:39:26.375Z,19.60
2024-01-06T07:40:26.356Z,19.33
2024-01-06T07:41:26.362Z,19.42
2024-01-06T07:42:26.436Z,20.67
2024-01-06T07:43:26.518Z,19.88
2024-01-06T07:44:26.521Z,19.65
2024-01-06T07:45:26.599Z,20.97
2024-01-06T07:46:26.556Z,19.95
2024-01-06T07:47:26.657Z,22.85
2024-01-06T07:48:26.751Z,29.70
2024-01-06T07:49:26.726Z,27.50
2024-01-06T07:50:26.584Z,28.88
2024-01-06T07:51:26.638Z,27.41
2024-01-06T07:52:26.588Z,26.50
2024-01-06T07:53:26.602Z,31.02
2024-01-06T07:54:26.652Z,34.26
2024-01-06T07:55:26.577Z,32.06
2024-01-06T07:56:26.593Z,29.72
2024-01-06T07:57:26.581Z,30.85
2024-01-06T07:58:26.580Z,29.49
2024-01-06T07:59:26.602Z,26.05
2024-01-06T08:00:26.759Z,25.04
2024-01-06T08:01:26.837Z,24.07
2024-01-06T08:02:26.759Z,24.50
2024-01-06T08:03:26.894Z,22.21
2024-01-06T08:04:26.834Z,21.62
2024-01-06T08:05:26.810Z,20.10
2024-01-06T08:06:26.865Z,20.73
2024-01-06T08:07:26.854Z,19.74
2024-01-06T08:08:26.870Z,19.65
2024-01-06T08:09:26.926Z,18.42
2024-01-06T08:10:26.867Z,19.32
2024-01-06T08:11:26.874Z,18.21
2024-01-06T08:12:26.970Z,19.26
2024-01-06T08:13:26.965Z,18.60
2024-01-06T08:14:26.988Z,18.45
2024-01-06T08:15:27.018Z,18.60
2024-01-06T08:16:27.022Z,19.22
2024-01-06T08:17:27.090Z,19.11
2024-01-06T08:18:27.136Z,19.00
2024-01-06T08:19:27.153Z,20.31
2024-01-06T08:20:27.062Z,19.43
2024-01-06T08:21:27.067Z,25.96
2024-01-06T08:22:27.053Z,21.38
2024-01-06T08:23:27.073Z,23.14
2024-01-06T08:24:27.123Z,24.21
2024-01-06T08:25:27.092Z,22.59
2024-01-06T08:26:27.163Z,22.67
2024-01-06T08:27:27.208Z,22.36
2024-01-06T08:28:27.283Z,21.38
2024-01-06T08:29:27.243Z,19.76
2024-01-06T08:30:27.390Z,19.10
2024-01-06T08:31:27.338Z,18.91
2024-01-06T08:32:27.307Z,18.65
2024-01-06T08:33:27.499Z,19.00
2024-01-06T08:34:30.378Z,19.54
2024-01-06T08:35:28.255Z,19.59
2024-01-06T08:36:27.271Z,19.20
2024-01-06T08:37:27.281Z,19.41
2024-01-06T08:38:27.258Z,18.75
2024-01-06T08:39:27.316Z,18.24
2024-01-06T08:40:27.231Z,20.02
2024-01-06T08:41:27.247Z,20.26
2024-01-06T08:42:27.539Z,19.59
2024-01-06T08:43:27.239Z,21.46
2024-01-06T08:44:27.252Z,20.98
2024-01-06T08:45:27.227Z,21.20
2024-01-06T08:46:27.214Z,22.39
2024-01-06T08:47:27.220Z,22.42
2024-01-06T08:48:27.338Z,21.49
2024-01-06T08:49:27.307Z,20.58
2024-01-06T08:50:27.253Z,21.93
2024-01-06T08:51:27.261Z,21.19
2024-01-06T08:52:27.233Z,20.39
2024-01-06T08:53:27.212Z,19.47
2024-01-06T08:54:27.315Z,20.21
2024-01-06T08:55:27.280Z,19.35
2024-01-06T08:56:27.294Z,18.82
2024-01-06T08:57:27.331Z,19.58
2024-01-06T08:58:27.325Z,19.28
2024-01-06T08:59:27.314Z,18.63
2024-01-06T09:00:27.479Z,18.43
2024-01-06T09:01:27.471Z,17.38
2024-01-06T09:02:27.413Z,17.89
2024-01-06T09:03:27.883Z,18.22
2024-01-06T09:04:27.538Z,18.11
2024-01-06T09:05:27.555Z,20.39
2024-01-06T09:06:27.522Z,18.96
2024-01-06T09:07:27.489Z,19.01
2024-01-06T09:08:27.575Z,19.31
2024-01-06T09:09:27.627Z,18.77
2024-01-06T09:10:27.674Z,20.19
2024-01-06T09:11:27.720Z,21.39
2024-01-06T09:12:27.756Z,21.75
2024-01-06T09:13:27.735Z,21.76
2024-01-06T09:14:27.722Z,20.92
2024-01-06T09:15:27.828Z,21.31
2024-01-06T09:16:27.781Z,20.60
2024-01-06T09:17:27.867Z,20.13
2024-01-06T09:18:28.010Z,19.47
2024-01-06T09:19:27.947Z,21.11
2024-01-06T09:20:27.947Z,19.00
2024-01-06T09:21:27.975Z,20.77
2024-01-06T09:22:28.064Z,21.19
2024-01-06T09:23:28.135Z,21.84
2024-01-06T09:24:28.164Z,22.58
2024-01-06T09:25:28.131Z,20.87
2024-01-06T09:26:28.182Z,20.71
2024-01-06T09:27:28.278Z,19.85
2024-01-06T09:28:28.325Z,21.50
2024-01-06T09:29:28.339Z,22.55
2024-01-06T09:30:28.450Z,23.03
2024-01-06T09:31:28.487Z,23.34
2024-01-06T09:32:28.602Z,23.29
2024-01-06T09:33:28.811Z,23.44
2024-01-06T09:34:28.793Z,24.34
2024-01-06T09:35:28.601Z,25.26
2024-01-06T09:36:28.732Z,26.03
2024-01-06T09:37:28.661Z,25.38
2024-01-06T09:38:28.683Z,25.20
2024-01-06T09:39:28.774Z,24.29
2024-01-06T09:40:28.720Z,24.54
2024-01-06T09:41:28.804Z,24.71
2024-01-06T09:42:28.795Z,22.30
2024-01-06T09:43:28.814Z,23.21
2024-01-06T09:44:28.810Z,23.03
2024-01-06T09:45:28.867Z,23.42
2024-01-06T09:46:28.908Z,23.00
2024-01-06T09:47:28.948Z,21.76
2024-01-06T09:48:29.078Z,21.43
2024-01-06T09:49:29.221Z,22.12
2024-01-06T09:50:29.015Z,20.94
2024-01-06T09:51:29.065Z,20.76
2024-01-06T09:52:29.087Z,20.59
2024-01-06T09:53:29.123Z,18.74
2024-01-06T09:54:29.194Z,18.74
2024-01-06T09:55:29.226Z,18.65
2024-01-06T09:56:29.256Z,19.25
2024-01-06T09:57:29.390Z,20.91
2024-01-06T09:58:29.385Z,19.71
2024-01-06T09:59:29.397Z,19.77
2024-01-06T10:00:29.469Z,18.88
2024-01-06T10:01:29.541Z,20.00
2024-01-06T10:02:29.522Z,18.85
2024-01-06T10:03:29.603Z,19.07
2024-01-06T10:04:29.612Z,19.79
2024-01-06T10:05:29.629Z,19.79
2024-01-06T10:06:29.628Z,19.88
2024-01-06T10:07:29.611Z,21.81
2024-01-06T10:08:29.601Z,22.69
2024-01-06T10:09:29.678Z,23.11
2024-01-06T10:10:29.631Z,22.92
2024-01-06T10:11:29.774Z,24.68
2024-01-06T10:12:32.153Z,26.67
2024-01-06T10:13:29.632Z,24.27
2024-01-06T10:14:29.614Z,26.47
2024-01-06T10:15:29.652Z,25.19
2024-01-06T10:16:29.584Z,25.19
2024-01-06T10:17:29.616Z,24.47
2024-01-06T10:18:29.681Z,25.27
2024-01-06T10:19:29.643Z,23.07
2024-01-06T10:20:29.549Z,23.44
2024-01-06T10:21:29.633Z,23.47
2024-01-06T10:22:29.532Z,22.51
2024-01-06T10:23:29.537Z,23.53
2024-01-06T10:24:29.557Z,24.23
2024-01-06T10:25:29.518Z,26.52
2024-01-06T10:26:29.507Z,26.75
2024-01-06T10:27:29.521Z,26.57
2024-01-06T10:28:29.480Z,26.03
2024-01-06T10:29:29.474Z,28.12
2024-01-06T10:30:29.469Z,23.92
2024-01-06T10:31:29.474Z,23.22
2024-01-06T10:32:29.502Z,25.70
2024-01-06T10:33:29.596Z,26.34
2024-01-06T10:34:29.479Z,25.02
2024-01-06T10:35:29.393Z,23.28
2024-01-06T10:36:29.407Z,23.36
2024-01-06T10:37:29.351Z,22.17
2024-01-06T10:38:29.346Z,22.27
2024-01-06T10:39:29.374Z,22.83
2024-01-06T10:40:29.319Z,23.15
2024-01-06T10:41:29.317Z,22.40
2024-01-06T10:42:29.314Z,22.42
2024-01-06T10:43:29.308Z,25.05
2024-01-06T10:44:29.316Z,23.12
2024-01-06T10:45:29.347Z,24.86
2024-01-06T10:46:29.315Z,25.51
2024-01-06T10:47:29.284Z,25.40
2024-01-06T10:48:29.385Z,27.16
2024-01-06T10:49:29.420Z,26.04
2024-01-06T10:50:29.297Z,24.17
2024-01-06T10:51:29.371Z,23.29
2024-01-06T10:52:29.512Z,24.84
2024-01-06T10:53:29.297Z,24.07
2024-01-06T10:54:29.349Z,24.19
2024-01-06T10:55:29.292Z,23.54
2024-01-06T10:56:29.288Z,24.43
2024-01-06T10:57:29.417Z,23.97
2024-01-06T10:58:29.289Z,23.51
2024-01-06T10:59:29.316Z,22.88
2024-01-06T11:00:29.372Z,24.46
2024-01-06T11:01:30.473Z,23.34
2024-01-06T11:02:29.271Z,27.48
2024-01-06T11:03:29.320Z,26.29
2024-01-06T11:04:29.342Z,27.27
2024-01-06T11:05:29.303Z,29.23
2024-01-06T11:06:29.346Z,25.58
2024-01-06T11:07:29.285Z,23.03
2024-01-06T11:08:29.292Z,24.18
2024-01-06T11:09:29.328Z,23.92
2024-01-06T11:10:29.353Z,23.35
2024-01-06T11:11:29.327Z,24.55
2024-01-06T11:12:29.320Z,24.16
2024-01-06T11:13:29.271Z,23.48
2024-01-06T11:14:29.514Z,24.18
2024-01-06T11:15:29.351Z,23.72
2024-01-06T11:16:29.296Z,24.77
2024-01-06T11:17:29.315Z,24.98
2024-01-06T11:18:29.412Z,23.39
2024-01-06T11:19:29.421Z,22.48
2024-01-06T11:20:29.347Z,22.48
2024-01-06T11:21:29.414Z,20.21
2024-01-06T11:22:29.447Z,20.21
2024-01-06T11:23:29.403Z,20.19
2024-01-06T11:24:29.456Z,19.39
2024-01-06T11:25:29.449Z,19.53
2024-01-06T11:26:29.458Z,20.55
2024-01-06T11:27:29.695Z,20.51
2024-01-06T11:28:29.531Z,20.42
2024-01-06T11:29:29.581Z,20.96
2024-01-06T11:30:29.761Z,21.84
2024-01-06T11:31:29.674Z,20.40
2024-01-06T11:32:29.885Z,21.52
2024-01-06T11:33:29.807Z,19.87
2024-01-06T11:34:29.820Z,20.66
2024-01-06T11:35:29.774Z,17.86
2024-01-06T11:36:29.885Z,15.42
2024-01-06T11:37:29.925Z,15.43
2024-01-06T11:38:29.953Z,16.04
2024-01-06T11:39:29.998Z,14.50
2024-01-06T11:40:30.037Z,14.19
2024-01-06T11:41:30.021Z,14.97
2024-01-06T11:42:30.066Z,13.77
2024-01-06T11:43:30.049Z,14.69
2024-01-06T11:44:30.066Z,14.60
2024-01-06T11:45:30.163Z,15.06
2024-01-06T11:46:30.082Z,14.14
2024-01-06T11:47:30.154Z,14.96
2024-01-06T11:48:30.209Z,12.98
2024-01-06T11:49:30.258Z,13.10
2024-01-06T11:50:30.162Z,13.67
2024-01-06T11:51:30.167Z,13.74
2024-01-06T11:52:30.179Z,14.71
2024-01-06T11:53:30.175Z,15.55
2024-01-06T11:54:30.236Z,16.28
2024-01-06T11:55:30.203Z,15.20
2024-01-06T11:56:30.218Z,15.43
2024-01-06T11:57:30.329Z,14.72
2024-01-06T11:58:30.237Z,15.93
2024-01-06T11:59:30.305Z,16.08
2024-01-06T12:00:30.355Z,14.96
2024-01-06T12:01:30.451Z,14.97
2024-01-06T12:02:30.433Z,15.01
2024-01-06T12:03:30.492Z,15.85
2024-01-06T12:04:30.556Z,15.84
2024-01-06T12:05:30.407Z,18.23
2024-01-06T12:06:30.475Z,16.77
2024-01-06T12:07:32.773Z,16.15
2024-01-06T12:08:30.417Z,15.47
2024-01-06T12:09:30.416Z,13.93
2024-01-06T12:10:30.525Z,15.97
2024-01-06T12:11:30.365Z,16.28
2024-01-06T12:12:30.361Z,15.64
2024-01-06T12:13:30.323Z,17.26
2024-01-06T12:14:30.316Z,15.40
2024-01-06T12:15:30.449Z,16.16
2024-01-06T12:16:30.255Z,16.40
2024-01-06T12:17:30.281Z,19.25
2024-01-06T12:18:30.242Z,19.68
2024-01-06T12:19:30.269Z,17.21
2024-01-06T12:20:30.341Z,17.06
2024-01-06T12:21:30.222Z,17.82
2024-01-06T12:22:30.162Z,16.22
2024-01-06T12:23:30.142Z,16.96
2024-01-06T12:24:30.119Z,17.48
2024-01-06T12:25:30.122Z,16.44
2024-01-06T12:26:30.088Z,16.75
2024-01-06T12:27:30.094Z,17.25
2024-01-06T12:28:30.044Z,17.69
2024-01-06T12:29:30.018Z,18.15
2024-01-06T12:30:30.116Z,17.01
2024-01-06T12:31:30.013Z,18.37
2024-01-06T12:32:30.049Z,17.48
2024-01-06T12:33:30.079Z,18.06
2024-01-06T12:34:30.031Z,17.45
2024-01-06T12:35:29.911Z,18.05
2024-01-06T12:36:29.926Z,17.16
2024-01-06T12:37:29.880Z,18.98
2024-01-06T12:38:30.257Z,18.35
2024-01-06T12:39:29.884Z,19.22
2024-01-06T12:40:29.849Z,18.91
2024-01-06T12:41:29.860Z,19.44
2024-01-06T12:42:29.812Z,19.25
2024-01-06T12:43:29.792Z,18.84
2024-01-06T12:44:29.758Z,18.28
2024-01-06T12:45:29.768Z,19.01
2024-01-06T12:46:29.756Z,17.79
2024-01-06T12:47:29.752Z,18.34
2024-01-06T12:48:29.841Z,19.19
2024-01-06T12:49:29.742Z,17.52
2024-01-06T12:50:29.657Z,18.59
2024-01-06T12:51:29.715Z,17.86
2024-01-06T12:52:29.606Z,17.64